createdAt,value
2019-03-25T00:00:30.210Z,75.72
2019-03-25T00:01:30.189Z,75.91
2019-03-25T00:02:30.178Z,75.72
2019-03-25T00:03:30.152Z,76.00
2019-03-25T00:04:30.130Z,76.10
2019-03-25T00:05:30.118Z,76.10
2019-03-25T00:06:30.097Z,76.10
2019-03-25T00:07:30.079Z,76.29
2019-03-25T00:08:30.054Z,76.38
2019-03-25T00:09:30.036Z,76.10
2019-03-25T00:10:30.021Z,76.10
2019-03-25T00:11:29.998Z,76.19
2019-03-25T00:12:29.981Z,76.10
2019-03-25T00:13:29.966Z,76.10
2019-03-25T00:14:29.944Z,76.38
2019-03-25T00:15:29.917Z,76.19
2019-03-25T00:16:29.898Z,76.38
2019-03-25T00:17:29.887Z,76.10
2019-03-25T00:18:29.917Z,76.10
2019-03-25T00:19:29.839Z,75.81
2019-03-25T00:20:29.820Z,76.00
2019-03-25T00:21:29.803Z,76.48
2019-03-25T00:22:29.784Z,76.10
2019-03-25T00:23:29.758Z,76.19
2019-03-25T00:24:38.205Z,76.10
2019-03-25T00:25:29.723Z,75.72
2019-03-25T00:26:29.700Z,75.91
2019-03-25T00:27:29.689Z,76.00
2019-03-25T00:28:29.664Z,75.62
2019-03-25T00:29:29.662Z,75.43
2019-03-25T00:30:29.626Z,75.34
2019-03-25T00:31:29.604Z,75.43
2019-03-25T00:32:29.585Z,75.53
2019-03-25T00:33:29.576Z,75.43
2019-03-25T00:34:29.545Z,75.81
2019-03-25T00:35:29.530Z,75.72
2019-03-25T00:36:29.508Z,76.00
2019-03-25T00:37:29.483Z,76.10
2019-03-25T00:38:29.491Z,76.10
2019-03-25T00:39:29.451Z,76.10
2019-03-25T00:40:29.433Z,76.19
2019-03-25T00:41:29.413Z,76.19
2019-03-25T00:42:29.389Z,75.72
2019-03-25T00:43:29.376Z,76.00
2019-03-25T00:44:29.722Z,76.00
2019-03-25T00:45:29.330Z,76.00
2019-03-25T00:46:29.311Z,75.91
2019-03-25T00:47:29.294Z,76.00
2019-03-25T00:48:29.273Z,76.10
2019-03-25T00:49:29.252Z,76.15
2019-03-25T00:50:29.233Z,76.06
2019-03-25T00:51:29.209Z,76.19
2019-03-25T00:52:29.196Z,75.87
2019-03-25T00:53:29.175Z,76.10
2019-03-25T00:54:29.152Z,75.87
2019-03-25T00:55:29.136Z,75.87
2019-03-25T00:56:29.117Z,75.87
2019-03-25T00:57:29.098Z,75.96
2019-03-25T00:58:29.078Z,75.96
2019-03-25T00:59:29.057Z,76.25
2019-03-25T01:00:29.052Z,76.15
2019-03-25T01:01:29.015Z,76.06
2019-03-25T01:02:28.997Z,76.15
2019-03-25T01:03:29.016Z,76.34
2019-03-25T01:04:28.955Z,76.44
2019-03-25T01:05:28.936Z,76.44
2019-03-25T01:06:28.914Z,76.63
2019-03-25T01:07:28.899Z,76.34
2019-03-25T01:08:28.878Z,76.34
2019-03-25T01:09:28.858Z,76.25
2019-03-25T01:10:28.836Z,76.44
2019-03-25T01:11:28.822Z,76.53
2019-03-25T01:12:28.800Z,76.63
2019-03-25T01:13:28.778Z,76.34
2019-03-25T01:14:28.758Z,76.34
2019-03-25T01:15:28.739Z,76.44
2019-03-25T01:16:28.720Z,76.53
2019-03-25T01:17:28.704Z,76.72
2019-03-25T01:18:28.681Z,76.44
2019-03-25T01:19:28.681Z,76.91
2019-03-25T01:20:28.728Z,76.82
2019-03-25T01:21:28.635Z,76.72
2019-03-25T01:22:28.601Z,76.34
2019-03-25T01:23:28.583Z,77.01
2019-03-25T01:24:28.562Z,77.20
2019-03-25T01:25:28.551Z,76.91
2019-03-25T01:26:28.523Z,77.29
2019-03-25T01:27:28.507Z,77.01
2019-03-25T01:28:28.475Z,77.20
2019-03-25T01:29:28.463Z,77.01
2019-03-25T01:30:28.443Z,77.01
2019-03-25T01:31:28.427Z,77.01
2019-03-25T01:32:28.402Z,77.01
2019-03-25T01:33:28.387Z,76.53
2019-03-25T01:34:28.368Z,77.01
2019-03-25T01:35:28.346Z,76.86
2019-03-25T01:36:28.325Z,76.95
2019-03-25T01:37:28.303Z,76.76
2019-03-25T01:38:28.287Z,76.48
2019-03-25T01:39:28.267Z,76.38
2019-03-25T01:40:28.245Z,76.38
2019-03-25T01:41:28.225Z,76.10
2019-03-25T01:42:28.207Z,76.38
2019-03-25T01:43:28.187Z,76.19
2019-03-25T01:44:28.170Z,75.91
2019-03-25T01:45:28.151Z,76.00
2019-03-25T01:46:28.126Z,76.10
2019-03-25T01:47:28.108Z,75.91
2019-03-25T01:48:28.086Z,76.00
2019-03-25T01:49:28.068Z,76.00
2019-03-25T01:50:28.050Z,76.00
2019-03-25T01:51:28.033Z,75.91
2019-03-25T01:52:28.012Z,76.38
2019-03-25T01:53:28.007Z,76.10
2019-03-25T01:54:27.981Z,75.53
2019-03-25T01:55:27.950Z,75.91
2019-03-25T01:56:27.936Z,75.62
2019-03-25T01:57:27.916Z,75.34
2019-03-25T01:58:27.894Z,75.72
2019-03-25T01:59:27.872Z,75.47
2019-03-25T02:00:27.852Z,75.76
2019-03-25T02:01:27.830Z,75.62
2019-03-25T02:02:27.814Z,75.47
2019-03-25T02:03:27.792Z,75.57
2019-03-25T02:04:27.775Z,75.66
2019-03-25T02:05:27.752Z,75.57
2019-03-25T02:06:27.739Z,75.66
2019-03-25T02:07:27.717Z,75.66
2019-03-25T02:08:27.691Z,75.72
2019-03-25T02:09:27.680Z,75.72
2019-03-25T02:10:27.663Z,75.53
2019-03-25T02:11:27.638Z,75.72
2019-03-25T02:12:27.617Z,75.62
2019-03-25T02:13:27.600Z,75.43
2019-03-25T02:14:27.582Z,75.43
2019-03-25T02:15:27.558Z,75.53
2019-03-25T02:16:27.539Z,75.62
2019-03-25T02:17:27.529Z,75.53
2019-03-25T02:18:27.509Z,75.62
2019-03-25T02:19:27.482Z,75.34
2019-03-25T02:20:27.459Z,75.91
2019-03-25T02:21:27.444Z,76.10
2019-03-25T02:22:27.552Z,76.19
2019-03-25T02:23:27.406Z,76.38
2019-03-25T02:24:27.379Z,76.19
2019-03-25T02:25:27.362Z,76.19
2019-03-25T02:26:27.347Z,76.10
2019-03-25T02:27:27.327Z,76.10
2019-03-25T02:28:27.304Z,76.00
2019-03-25T02:29:27.288Z,75.91
2019-03-25T02:30:27.266Z,76.00
2019-03-25T02:31:27.248Z,75.91
2019-03-25T02:32:27.229Z,76.00
2019-03-25T02:33:27.210Z,75.96
2019-03-25T02:34:27.191Z,76.00
2019-03-25T02:35:27.168Z,76.10
2019-03-25T02:36:27.198Z,76.25
2019-03-25T02:37:27.138Z,76.57
2019-03-25T02:38:27.108Z,76.15
2019-03-25T02:39:27.090Z,76.53
2019-03-25T02:40:27.068Z,76.63
2019-03-25T02:41:27.051Z,76.63
2019-03-25T02:42:27.030Z,76.25
2019-03-25T02:43:27.018Z,76.53
2019-03-25T02:44:26.992Z,76.63
2019-03-25T02:45:26.968Z,76.63
2019-03-25T02:46:26.949Z,76.44
2019-03-25T02:47:26.932Z,76.34
2019-03-25T02:48:26.907Z,76.34
2019-03-25T02:49:26.892Z,76.34
2019-03-25T02:50:26.871Z,76.63
2019-03-25T02:51:26.853Z,76.53
2019-03-25T02:52:26.838Z,76.91
2019-03-25T02:53:26.811Z,76.91
2019-03-25T02:54:26.796Z,76.72
2019-03-25T02:55:40.631Z,76.63
2019-03-25T02:56:26.754Z,76.82
2019-03-25T02:57:26.734Z,77.01
2019-03-25T02:58:26.717Z,77.01
2019-03-25T02:59:26.693Z,77.01
2019-03-25T03:00:26.681Z,76.91
2019-03-25T03:01:26.660Z,77.10
2019-03-25T03:02:26.635Z,77.01
2019-03-25T03:03:26.618Z,77.01
2019-03-25T03:04:26.594Z,76.82
2019-03-25T03:05:26.576Z,76.72
2019-03-25T03:06:26.557Z,76.82
2019-03-25T03:07:26.538Z,76.82
2019-03-25T03:08:26.517Z,76.82
2019-03-25T03:09:26.490Z,76.82
2019-03-25T03:10:26.474Z,76.82
2019-03-25T03:11:26.453Z,77.01
2019-03-25T03:12:26.430Z,76.72
2019-03-25T03:13:26.414Z,76.72
2019-03-25T03:14:26.396Z,76.91
2019-03-25T03:15:26.390Z,77.10
2019-03-25T03:16:26.353Z,77.20
2019-03-25T03:17:26.344Z,76.91
2019-03-25T03:18:26.315Z,76.91
2019-03-25T03:19:26.294Z,77.01
2019-03-25T03:20:26.271Z,76.91
2019-03-25T03:21:26.257Z,77.10
2019-03-25T03:22:26.235Z,77.10
2019-03-25T03:23:26.230Z,77.10
2019-03-25T03:24:26.195Z,77.10
2019-03-25T03:25:26.175Z,76.72
2019-03-25T03:26:26.158Z,77.48
2019-03-25T03:27:29.612Z,77.48
2019-03-25T03:28:26.114Z,77.20
2019-03-25T03:29:26.098Z,77.20
2019-03-25T03:30:26.205Z,77.29
2019-03-25T03:31:26.048Z,77.58
2019-03-25T03:32:26.060Z,77.20
2019-03-25T03:33:26.030Z,77.58
2019-03-25T03:34:26.070Z,77.01
2019-03-25T03:35:25.974Z,77.10
2019-03-25T03:36:25.954Z,77.10
2019-03-25T03:37:25.935Z,76.82
2019-03-25T03:38:25.932Z,76.82
2019-03-25T03:39:25.900Z,76.91
2019-03-25T03:40:25.873Z,76.91
2019-03-25T03:41:25.854Z,76.91
2019-03-25T03:42:25.835Z,77.01
2019-03-25T03:43:25.825Z,76.82
2019-03-25T03:44:25.799Z,76.91
2019-03-25T03:45:25.809Z,76.63
2019-03-25T03:46:25.758Z,76.82
2019-03-25T03:47:25.758Z,76.82
2019-03-25T03:48:25.720Z,76.82
2019-03-25T03:49:25.702Z,76.91
2019-03-25T03:50:25.673Z,76.82
2019-03-25T03:51:25.655Z,76.63
2019-03-25T03:52:25.633Z,76.53
2019-03-25T03:53:25.640Z,76.44
2019-03-25T03:54:25.597Z,76.63
2019-03-25T03:55:25.573Z,76.44
2019-03-25T03:56:25.554Z,76.63
2019-03-25T03:57:25.535Z,76.44
2019-03-25T03:58:25.520Z,76.53
2019-03-25T03:59:25.497Z,76.53
2019-03-25T04:00:25.472Z,76.34
2019-03-25T04:01:25.453Z,76.34
2019-03-25T04:02:25.434Z,76.44
2019-03-25T04:03:25.417Z,76.44
2019-03-25T04:04:25.430Z,76.44
2019-03-25T04:05:25.371Z,76.34
2019-03-25T04:06:25.355Z,76.67
2019-03-25T04:07:25.335Z,76.25
2019-03-25T04:08:25.319Z,76.72
2019-03-25T04:09:25.290Z,76.10
2019-03-25T04:10:25.376Z,76.19
2019-03-25T04:11:25.253Z,76.19
2019-03-25T04:12:25.234Z,76.10
2019-03-25T04:13:25.214Z,76.00
2019-03-25T04:14:25.189Z,75.91
2019-03-25T04:15:25.169Z,76.00
2019-03-25T04:16:25.152Z,76.00
2019-03-25T04:17:25.139Z,76.10
2019-03-25T04:18:25.114Z,76.19
2019-03-25T04:19:25.093Z,76.38
2019-03-25T04:20:25.072Z,76.48
2019-03-25T04:21:25.062Z,75.91
2019-03-25T04:22:25.032Z,75.62
2019-03-25T04:23:25.014Z,76.00
2019-03-25T04:24:25.007Z,75.43
2019-03-25T04:25:24.972Z,75.91
2019-03-25T04:26:28.916Z,75.53
2019-03-25T04:27:24.933Z,75.62
2019-03-25T04:28:24.913Z,75.81
2019-03-25T04:29:24.894Z,75.53
2019-03-25T04:30:24.876Z,75.43
2019-03-25T04:31:24.854Z,75.62
2019-03-25T04:32:24.834Z,75.85
2019-03-25T04:33:24.817Z,75.66
2019-03-25T04:34:24.797Z,75.57
2019-03-25T04:35:24.782Z,75.28
2019-03-25T04:36:24.762Z,75.09
2019-03-25T04:37:24.740Z,75.28
2019-03-25T04:38:24.717Z,75.38
2019-03-25T04:39:24.697Z,75.76
2019-03-25T04:40:24.681Z,74.81
2019-03-25T04:41:24.673Z,75.00
2019-03-25T04:42:24.640Z,75.00
2019-03-25T04:43:24.619Z,75.19
2019-03-25T04:44:24.598Z,75.28
2019-03-25T04:45:24.582Z,75.09
2019-03-25T04:46:24.562Z,75.09
2019-03-25T04:47:24.541Z,75.09
2019-03-25T04:48:24.518Z,75.28
2019-03-25T04:49:24.508Z,75.09
2019-03-25T04:50:24.482Z,75.19
2019-03-25T04:51:24.496Z,75.28
2019-03-25T04:52:24.445Z,75.19
2019-03-25T04:53:24.420Z,75.19
2019-03-25T04:54:24.405Z,75.19
2019-03-25T04:55:24.383Z,75.09
2019-03-25T04:56:24.369Z,75.09
2019-03-25T04:57:24.348Z,75.47
2019-03-25T04:58:24.325Z,75.28
2019-03-25T04:59:24.308Z,75.00
2019-03-25T05:00:24.285Z,74.62
2019-03-25T05:01:24.271Z,74.62
2019-03-25T05:02:24.252Z,74.52
2019-03-25T05:03:24.237Z,74.62
2019-03-25T05:04:24.214Z,74.62
2019-03-25T05:05:24.188Z,74.75
2019-03-25T05:06:24.175Z,74.95
2019-03-25T05:07:24.161Z,74.81
2019-03-25T05:08:24.131Z,74.71
2019-03-25T05:09:24.113Z,75.00
2019-03-25T05:10:24.094Z,74.81
2019-03-25T05:11:30.545Z,74.71
2019-03-25T05:12:24.054Z,74.81
2019-03-25T05:13:24.034Z,74.33
2019-03-25T05:14:24.014Z,74.62
2019-03-25T05:15:23.998Z,74.52
2019-03-25T05:16:23.974Z,74.62
2019-03-25T05:17:23.960Z,74.66
2019-03-25T05:18:23.942Z,74.71
2019-03-25T05:19:23.915Z,74.62
2019-03-25T05:20:23.895Z,74.71
2019-03-25T05:21:23.876Z,74.62
2019-03-25T05:22:23.864Z,74.43
2019-03-25T05:23:23.842Z,74.71
2019-03-25T05:24:23.820Z,74.90
2019-03-25T05:25:23.801Z,74.90
2019-03-25T05:26:23.782Z,74.33
2019-03-25T05:27:23.768Z,74.62
2019-03-25T05:28:23.744Z,74.43
2019-03-25T05:29:23.723Z,74.33
2019-03-25T05:30:23.701Z,74.62
2019-03-25T05:31:23.688Z,74.47
2019-03-25T05:32:23.663Z,74.66
2019-03-25T05:33:23.643Z,74.24
2019-03-25T05:34:23.624Z,74.05
2019-03-25T05:35:23.608Z,74.05
2019-03-25T05:36:23.583Z,74.24
2019-03-25T05:37:23.570Z,73.96
2019-03-25T05:38:23.546Z,73.99
2019-03-25T05:39:23.528Z,74.18
2019-03-25T05:40:23.507Z,74.05
2019-03-25T05:41:23.493Z,74.33
2019-03-25T05:42:23.469Z,74.56
2019-03-25T05:43:23.449Z,74.52
2019-03-25T05:44:23.427Z,74.62
2019-03-25T05:45:23.409Z,74.81
2019-03-25T05:46:23.393Z,74.37
2019-03-25T05:47:23.374Z,74.37
2019-03-25T05:48:23.348Z,74.66
2019-03-25T05:49:23.334Z,74.56
2019-03-25T05:50:23.328Z,75.04
2019-03-25T05:51:23.293Z,74.66
2019-03-25T05:52:23.274Z,74.47
2019-03-25T05:53:23.256Z,74.56
2019-03-25T05:54:23.236Z,74.66
2019-03-25T05:55:23.216Z,74.28
2019-03-25T05:56:23.199Z,74.09
2019-03-25T05:57:23.196Z,74.18
2019-03-25T05:58:23.159Z,74.18
2019-03-25T05:59:23.139Z,74.28
2019-03-25T06:00:23.120Z,73.90
2019-03-25T06:01:23.102Z,74.37
2019-03-25T06:02:23.082Z,74.28
2019-03-25T06:03:23.063Z,74.47
2019-03-25T06:04:23.040Z,74.18
2019-03-25T06:05:23.023Z,74.09
2019-03-25T06:06:23.004Z,73.99
2019-03-25T06:07:22.985Z,73.99
2019-03-25T06:08:22.978Z,74.47
2019-03-25T06:09:22.947Z,73.90
2019-03-25T06:10:22.934Z,74.18
2019-03-25T06:11:22.909Z,74.18
2019-03-25T06:12:22.889Z,74.03
2019-03-25T06:13:22.872Z,74.03
2019-03-25T06:14:22.849Z,74.13
2019-03-25T06:15:22.837Z,73.94
2019-03-25T06:16:22.812Z,73.94
2019-03-25T06:17:22.798Z,73.75
2019-03-25T06:18:22.775Z,74.03
2019-03-25T06:19:22.756Z,73.37
2019-03-25T06:20:22.734Z,73.37
2019-03-25T06:21:22.721Z,73.37
2019-03-25T06:22:22.695Z,73.37
2019-03-25T06:23:22.682Z,73.27
2019-03-25T06:24:22.659Z,73.65
2019-03-25T06:25:22.643Z,73.08
2019-03-25T06:26:22.622Z,73.18
2019-03-25T06:27:22.606Z,72.80
2019-03-25T06:28:22.592Z,72.71
2019-03-25T06:29:22.560Z,72.61
2019-03-25T06:30:22.547Z,72.89
2019-03-25T06:31:22.527Z,72.99
2019-03-25T06:32:22.505Z,72.80
2019-03-25T06:33:22.487Z,72.80
2019-03-25T06:34:22.469Z,72.89
2019-03-25T06:35:22.453Z,72.89
2019-03-25T06:36:22.431Z,72.71
2019-03-25T06:37:22.414Z,72.71
2019-03-25T06:38:22.393Z,73.27
2019-03-25T06:39:22.379Z,73.08
2019-03-25T06:40:22.350Z,73.56
2019-03-25T06:41:22.337Z,73.46
2019-03-25T06:42:22.318Z,73.27
2019-03-25T06:43:22.300Z,73.56
2019-03-25T06:44:22.281Z,73.56
2019-03-25T06:45:22.980Z,73.46
2019-03-25T06:46:22.397Z,73.37
2019-03-25T06:47:22.226Z,74.13
2019-03-25T06:48:22.202Z,73.46
2019-03-25T06:49:22.186Z,73.65
2019-03-25T06:50:22.164Z,73.75
2019-03-25T06:51:22.147Z,73.84
2019-03-25T06:52:22.130Z,74.03
2019-03-25T06:53:22.108Z,74.03
2019-03-25T06:54:22.088Z,73.94
2019-03-25T06:55:22.075Z,73.56
2019-03-25T06:56:22.054Z,73.94
2019-03-25T06:57:25.863Z,74.03
2019-03-25T06:58:22.016Z,73.65
2019-03-25T06:59:21.995Z,73.65
2019-03-25T07:00:21.976Z,73.56
2019-03-25T07:01:21.961Z,74.22
2019-03-25T07:02:21.941Z,73.50
2019-03-25T07:03:21.919Z,73.88
2019-03-25T07:04:21.898Z,73.88
2019-03-25T07:05:21.881Z,74.26
2019-03-25T07:06:21.863Z,73.97
2019-03-25T07:07:21.842Z,73.50
2019-03-25T07:08:21.825Z,73.50
2019-03-25T07:09:21.805Z,73.50
2019-03-25T07:10:21.787Z,73.60
2019-03-25T07:11:21.768Z,73.50
2019-03-25T07:12:21.749Z,73.69
2019-03-25T07:13:21.731Z,72.93
2019-03-25T07:14:21.713Z,72.93
2019-03-25T07:15:21.692Z,73.12
2019-03-25T07:16:21.675Z,73.12
2019-03-25T07:17:21.657Z,73.12
2019-03-25T07:18:21.637Z,73.22
2019-03-25T07:19:21.623Z,72.84
2019-03-25T07:20:21.603Z,72.74
2019-03-25T07:21:21.578Z,72.74
2019-03-25T07:22:21.562Z,72.93
2019-03-25T07:23:21.545Z,72.84
2019-03-25T07:24:21.527Z,73.60
2019-03-25T07:25:21.507Z,72.84
2019-03-25T07:26:21.492Z,73.03
2019-03-25T07:27:21.471Z,73.31
2019-03-25T07:28:21.456Z,72.84
2019-03-25T07:29:21.431Z,73.03
2019-03-25T07:30:21.417Z,73.12
2019-03-25T07:31:21.392Z,73.31
2019-03-25T07:32:21.377Z,73.03
2019-03-25T07:33:21.360Z,72.74
2019-03-25T07:34:21.340Z,72.93
2019-03-25T07:35:22.448Z,73.03
2019-03-25T07:36:21.307Z,73.03
2019-03-25T07:37:23.596Z,72.93
2019-03-25T07:38:21.266Z,73.03
2019-03-25T07:39:21.250Z,72.88
2019-03-25T07:40:21.227Z,73.07
2019-03-25T07:41:21.210Z,72.49
2019-03-25T07:42:21.191Z,72.30
2019-03-25T07:43:21.179Z,72.30
2019-03-25T07:44:21.155Z,72.78
2019-03-25T07:45:21.136Z,72.49
2019-03-25T07:46:21.122Z,72.11
2019-03-25T07:47:21.105Z,72.11
2019-03-25T07:48:21.082Z,72.30
2019-03-25T07:49:21.065Z,71.92
2019-03-25T07:50:21.046Z,71.83
2019-03-25T07:51:21.030Z,71.92
2019-03-25T07:52:21.009Z,71.92
2019-03-25T07:53:20.996Z,71.83
2019-03-25T07:54:20.972Z,71.64
2019-03-25T07:55:20.956Z,71.64
2019-03-25T07:56:20.940Z,71.55
2019-03-25T07:57:20.951Z,71.55
2019-03-25T07:58:20.913Z,71.17
2019-03-25T07:59:20.887Z,71.64
2019-03-25T08:00:20.862Z,71.73
2019-03-25T08:01:20.872Z,71.92
2019-03-25T08:02:20.826Z,71.80
2019-03-25T08:03:20.809Z,71.70
2019-03-25T08:04:20.787Z,71.80
2019-03-25T08:05:20.775Z,71.70
2019-03-25T08:06:20.769Z,71.60
2019-03-25T08:07:20.747Z,71.70
2019-03-25T08:08:20.721Z,71.80
2019-03-25T08:09:20.745Z,71.60
2019-03-25T08:10:20.712Z,72.08
2019-03-25T08:11:20.670Z,72.08
2019-03-25T08:12:20.642Z,72.17
2019-03-25T08:13:20.799Z,72.27
2019-03-25T08:14:20.612Z,72.17
2019-03-25T08:15:20.589Z,72.36
2019-03-25T08:16:20.569Z,72.08
2019-03-25T08:17:20.554Z,72.64
2019-03-25T08:18:20.535Z,72.84
2019-03-25T08:19:20.514Z,72.93
2019-03-25T08:20:20.495Z,73.50
2019-03-25T08:21:20.476Z,73.50
2019-03-25T08:22:20.464Z,74.07
2019-03-25T08:23:20.440Z,74.16
2019-03-25T08:24:20.421Z,73.88
2019-03-25T08:25:20.403Z,74.35
2019-03-25T08:26:20.384Z,74.26
2019-03-25T08:27:20.364Z,74.07
2019-03-25T08:28:20.343Z,73.97
2019-03-25T08:29:20.326Z,74.54
2019-03-25T08:30:20.312Z,74.54
2019-03-25T08:31:20.290Z,74.64
2019-03-25T08:32:20.272Z,74.83
2019-03-25T08:33:20.258Z,74.73
2019-03-25T08:34:20.233Z,75.49
2019-03-25T08:35:20.216Z,75.21
2019-03-25T08:36:20.196Z,75.49
2019-03-25T08:37:20.181Z,75.49
2019-03-25T08:38:20.160Z,75.68
2019-03-25T08:39:20.141Z,75.78
2019-03-25T08:40:20.124Z,75.59
2019-03-25T08:41:20.100Z,75.96
2019-03-25T08:42:20.086Z,75.68
2019-03-25T08:43:20.065Z,75.78
2019-03-25T08:44:20.048Z,75.68
2019-03-25T08:45:20.029Z,75.78
2019-03-25T08:46:20.012Z,76.06
2019-03-25T08:47:19.993Z,75.87
2019-03-25T08:48:19.972Z,75.78
2019-03-25T08:49:19.954Z,75.87
2019-03-25T08:50:19.934Z,75.59
2019-03-25T08:51:19.914Z,75.31
2019-03-25T08:52:19.898Z,75.21
2019-03-25T08:53:19.881Z,75.40
2019-03-25T08:54:19.860Z,75.59
2019-03-25T08:55:19.848Z,75.72
2019-03-25T08:56:19.824Z,75.62
2019-03-25T08:57:19.811Z,74.96
2019-03-25T08:58:19.793Z,75.15
2019-03-25T08:59:19.771Z,75.34
2019-03-25T09:00:19.750Z,75.34
2019-03-25T09:01:19.736Z,75.24
2019-03-25T09:02:19.713Z,75.53
2019-03-25T09:03:19.710Z,75.05
2019-03-25T09:04:19.681Z,74.87
2019-03-25T09:05:19.660Z,74.77
2019-03-25T09:06:19.641Z,74.87
2019-03-25T09:07:19.629Z,74.90
2019-03-25T09:08:19.602Z,75.09
2019-03-25T09:09:19.588Z,74.71
2019-03-25T09:10:19.569Z,74.33
2019-03-25T09:11:19.550Z,74.81
2019-03-25T09:12:19.533Z,74.81
2019-03-25T09:13:19.513Z,74.62
2019-03-25T09:14:19.495Z,74.43
2019-03-25T09:15:19.481Z,74.15
2019-03-25T09:16:19.459Z,74.27
2019-03-25T09:17:19.442Z,73.99
2019-03-25T09:18:19.424Z,73.80
2019-03-25T09:19:19.407Z,73.52
2019-03-25T09:20:19.391Z,73.42
2019-03-25T09:21:19.371Z,72.95
2019-03-25T09:22:19.353Z,72.95
2019-03-25T09:23:19.342Z,73.23
2019-03-25T09:24:19.321Z,73.80
2019-03-25T09:25:19.302Z,73.84
2019-03-25T09:26:19.285Z,73.18
2019-03-25T09:27:19.268Z,73.02
2019-03-25T09:28:24.053Z,72.67
2019-03-25T09:29:19.235Z,71.34
2019-03-25T09:30:19.221Z,70.20
2019-03-25T09:31:19.200Z,69.44
2019-03-25T09:32:19.184Z,68.87
2019-03-25T09:33:19.170Z,68.90
2019-03-25T09:34:19.150Z,69.38
2019-03-25T09:35:19.141Z,68.90
2019-03-25T09:36:19.133Z,69.00
2019-03-25T09:37:19.110Z,68.75
2019-03-25T09:38:19.086Z,68.46
2019-03-25T09:39:19.074Z,67.83
2019-03-25T09:40:19.058Z,67.55
2019-03-25T09:41:19.041Z,65.45
2019-03-25T09:42:19.025Z,64.78
2019-03-25T09:43:19.008Z,65.16
2019-03-25T09:44:18.990Z,65.16
2019-03-25T09:45:18.979Z,65.36
2019-03-25T09:46:18.963Z,65.07
2019-03-25T09:47:18.954Z,64.78
2019-03-25T09:48:18.927Z,64.08
2019-03-25T09:49:18.931Z,64.56
2019-03-25T09:50:18.906Z,64.65
2019-03-25T09:51:18.883Z,65.03
2019-03-25T09:52:18.868Z,65.45
2019-03-25T09:53:18.852Z,65.26
2019-03-25T09:54:18.838Z,65.16
2019-03-25T09:55:18.824Z,65.07
2019-03-25T09:56:18.808Z,64.50
2019-03-25T09:57:19.610Z,64.21
2019-03-25T09:58:18.777Z,64.31
2019-03-25T09:59:18.764Z,63.67
2019-03-25T10:00:18.742Z,64.05
2019-03-25T10:01:18.727Z,63.48
2019-03-25T10:02:18.714Z,62.72
2019-03-25T10:03:18.697Z,62.05
2019-03-25T10:04:20.095Z,62.05
2019-03-25T10:05:18.670Z,62.02
2019-03-25T10:06:18.653Z,61.76
2019-03-25T10:07:18.649Z,61.45
2019-03-25T10:08:18.622Z,61.54
2019-03-25T10:09:18.606Z,61.83
2019-03-25T10:10:18.597Z,62.02
2019-03-25T10:11:18.578Z,62.12
2019-03-25T10:12:18.563Z,61.83
2019-03-25T10:13:18.547Z,62.05
2019-03-25T10:14:18.533Z,60.91
2019-03-25T10:15:18.520Z,60.62
2019-03-25T10:16:18.498Z,60.33
2019-03-25T10:17:18.495Z,60.91
2019-03-25T10:18:18.473Z,60.81
2019-03-25T10:19:18.456Z,60.17
2019-03-25T10:20:18.440Z,60.36
2019-03-25T10:21:18.424Z,59.79
2019-03-25T10:22:18.413Z,58.84
2019-03-25T10:23:18.398Z,59.22
2019-03-25T10:24:18.397Z,58.29
2019-03-25T10:25:18.371Z,57.63
2019-03-25T10:26:18.357Z,57.63
2019-03-25T10:27:18.343Z,57.92
2019-03-25T10:28:18.324Z,57.94
2019-03-25T10:29:18.319Z,57.46
2019-03-25T10:30:18.299Z,57.18
2019-03-25T10:31:18.285Z,56.54
2019-03-25T10:32:18.271Z,55.68
2019-03-25T10:33:18.258Z,55.61
2019-03-25T10:34:18.242Z,55.32
2019-03-25T10:35:18.234Z,54.49
2019-03-25T10:36:18.216Z,53.73
2019-03-25T10:37:18.206Z,53.34
2019-03-25T10:38:19.802Z,53.18
2019-03-25T10:39:18.177Z,52.13
2019-03-25T10:40:18.162Z,51.84
2019-03-25T10:41:18.152Z,51.75
2019-03-25T10:42:18.140Z,50.60
2019-03-25T10:43:18.122Z,50.02
2019-03-25T10:44:18.115Z,50.31
2019-03-25T10:45:18.102Z,49.86
2019-03-25T10:46:18.096Z,48.33
2019-03-25T10:47:18.083Z,48.23
2019-03-25T10:48:18.065Z,48.25
2019-03-25T10:49:18.052Z,48.25
2019-03-25T10:50:18.040Z,48.28
2019-03-25T10:51:18.030Z,47.71
2019-03-25T10:52:18.019Z,46.65
2019-03-25T10:53:18.010Z,46.67
2019-03-25T10:54:18.021Z,45.33
2019-03-25T10:55:17.985Z,45.50
2019-03-25T10:56:17.976Z,43.01
2019-03-25T10:57:17.967Z,43.08
2019-03-25T10:58:17.953Z,43.35
2019-03-25T10:59:17.938Z,42.76
2019-03-25T11:00:17.926Z,43.79
2019-03-25T11:01:17.915Z,44.84
2019-03-25T11:02:17.901Z,45.58
2019-03-25T11:03:17.891Z,46.22
2019-03-25T11:04:17.877Z,46.99
2019-03-25T11:05:17.864Z,47.56
2019-03-25T11:06:17.855Z,47.92
2019-03-25T11:07:17.965Z,48.21
2019-03-25T11:08:17.823Z,48.78
2019-03-25T11:09:17.845Z,49.16
2019-03-25T11:10:17.800Z,49.23
2019-03-25T11:11:17.783Z,49.44
2019-03-25T11:12:17.771Z,49.42
2019-03-25T11:13:17.755Z,49.23
2019-03-25T11:14:17.743Z,49.33
2019-03-25T11:15:17.730Z,49.78
2019-03-25T11:16:17.717Z,49.21
2019-03-25T11:17:17.709Z,49.30
2019-03-25T11:18:17.689Z,50.16
2019-03-25T11:19:17.674Z,49.66
2019-03-25T11:20:17.658Z,49.76
2019-03-25T11:21:17.643Z,50.23
2019-03-25T11:22:17.629Z,50.42
2019-03-25T11:23:17.611Z,50.40
2019-03-25T11:24:17.597Z,50.97
2019-03-25T11:25:17.584Z,51.06
2019-03-25T11:26:17.568Z,51.35
2019-03-25T11:27:17.555Z,51.73
2019-03-25T11:28:17.538Z,51.64
2019-03-25T11:29:17.522Z,51.70
2019-03-25T11:30:17.508Z,51.54
2019-03-25T11:31:17.496Z,51.92
2019-03-25T11:32:17.478Z,52.11
2019-03-25T11:33:17.462Z,52.01
2019-03-25T11:34:17.447Z,52.01
2019-03-25T11:35:17.431Z,51.85
2019-03-25T11:36:17.415Z,51.66
2019-03-25T11:37:17.401Z,51.47
2019-03-25T11:38:17.386Z,50.80
2019-03-25T11:39:17.373Z,50.71
2019-03-25T11:40:17.355Z,50.21
2019-03-25T11:41:17.340Z,49.82
2019-03-25T11:42:17.325Z,49.26
2019-03-25T11:43:17.309Z,48.39
2019-03-25T11:44:17.296Z,47.82
2019-03-25T11:45:17.281Z,48.47
2019-03-25T11:46:17.261Z,48.47
2019-03-25T11:47:17.249Z,48.47
2019-03-25T11:48:17.234Z,49.23
2019-03-25T11:49:17.215Z,48.94
2019-03-25T11:50:17.202Z,49.20
2019-03-25T11:51:17.185Z,49.77
2019-03-25T11:52:17.172Z,49.77
2019-03-25T11:53:17.153Z,50.15
2019-03-25T11:54:17.140Z,49.80
2019-03-25T11:55:17.874Z,49.68
2019-03-25T11:56:17.106Z,49.87
2019-03-25T11:57:17.091Z,49.71
2019-03-25T11:58:17.075Z,49.68
2019-03-25T11:59:18.883Z,50.15
2019-03-25T12:00:17.043Z,50.15
2019-03-25T12:01:17.028Z,50.27
2019-03-25T12:02:17.773Z,50.09
2019-03-25T12:03:16.991Z,50.15
2019-03-25T12:04:16.980Z,50.44
2019-03-25T12:05:16.963Z,50.73
2019-03-25T12:06:16.948Z,50.73
2019-03-25T12:07:16.933Z,50.63
2019-03-25T12:08:16.916Z,50.35
2019-03-25T12:09:16.902Z,51.01
2019-03-25T12:10:16.885Z,50.92
2019-03-25T12:11:16.868Z,50.54
2019-03-25T12:12:16.850Z,50.73
2019-03-25T12:13:16.838Z,50.82
2019-03-25T12:14:16.821Z,50.54
2019-03-25T12:15:16.810Z,51.01
2019-03-25T12:16:16.789Z,51.01
2019-03-25T12:17:16.775Z,50.92
2019-03-25T12:18:16.756Z,51.49
2019-03-25T12:19:16.732Z,51.39
2019-03-25T12:20:16.718Z,51.58
2019-03-25T12:21:16.707Z,51.49
2019-03-25T12:22:16.689Z,51.49
2019-03-25T12:23:25.764Z,51.32
2019-03-25T12:24:16.654Z,51.51
2019-03-25T12:25:16.642Z,51.42
2019-03-25T12:26:16.629Z,51.61
2019-03-25T12:27:16.625Z,51.04
2019-03-25T12:28:16.594Z,51.16
2019-03-25T12:29:16.582Z,50.78
2019-03-25T12:30:16.562Z,50.97
2019-03-25T12:31:16.545Z,51.06
2019-03-25T12:32:16.523Z,50.87
2019-03-25T12:33:16.514Z,51.45
2019-03-25T12:34:16.520Z,51.37
2019-03-25T12:35:16.486Z,51.88
2019-03-25T12:36:16.469Z,51.81
2019-03-25T12:37:16.456Z,50.40
2019-03-25T12:38:16.440Z,49.28
2019-03-25T12:39:16.454Z,48.85
2019-03-25T12:40:16.412Z,47.44
2019-03-25T12:41:16.402Z,46.61
2019-03-25T12:42:16.387Z,45.86
2019-03-25T12:43:16.368Z,45.57
2019-03-25T12:44:16.360Z,44.83
2019-03-25T12:45:16.349Z,44.09
2019-03-25T12:46:16.345Z,43.70
2019-03-25T12:47:16.334Z,43.44
2019-03-25T12:48:16.317Z,42.86
2019-03-25T12:49:16.305Z,42.67
2019-03-25T12:50:16.298Z,42.67
2019-03-25T12:51:16.327Z,43.17
2019-03-25T12:52:16.277Z,43.17